Time;durP1;ratioP1;P1;durP2;ratioP2;P2;SDS_P1;SDS_P2;PMS_P1;PMS_P2;Temp;Humidity;BMP_temperature;BMP_pressure;BME280_temperature;BME280_humidity;BME280_pressure;Samples;Min_cycle;Max_cycle;Signal;HPM_P1;HPM_P2
2023/08/10 00:01:30;;;;;;;4.90;3.17;;;16.90;99.90;;;;;;5004977;28;20194;-66
2023/08/10 00:03:56;;;;;;;2.90;2.70;;;16.90;99.90;;;;;;5006265;28;20187;-66
2023/08/10 00:06:22;;;;;;;2.77;2.57;;;17.40;99.90;;;;;;5005725;28;20232;-66
2023/08/10 00:08:49;;;;;;;2.60;2.40;;;16.80;99.90;;;;;;5003172;28;20191;-64
2023/08/10 00:11:15;;;;;;;4.45;2.25;;;16.50;99.90;;;;;;5007585;28;20186;-63
2023/08/10 00:13:41;;;;;;;2.80;2.60;;;16.80;99.90;;;;;;5004914;28;20205;-63
2023/08/10 00:16:07;;;;;;;3.00;2.80;;;16.70;99.90;;;;;;5007042;28;20218;-63
2023/08/10 00:18:33;;;;;;;2.70;2.50;;;16.80;99.90;;;;;;5005177;28;20195;-64
2023/08/10 00:20:59;;;;;;;5.73;2.60;;;16.90;99.90;;;;;;5003569;28;20198;-64
2023/08/10 00:23:25;;;;;;;2.80;2.60;;;16.60;99.90;;;;;;5008140;28;20702;-63
2023/08/10 00:25:51;;;;;;;3.87;2.90;;;16.60;99.90;;;;;;5005433;28;20218;-64
2023/08/10 00:28:16;;;;;;;2.50;2.30;;;16.80;99.90;;;;;;5024706;23;20239;-68
2023/08/10 00:30:42;;;;;;;2.60;2.40;;;16.50;99.90;;;;;;5068552;28;20219;-68
2023/08/10 00:33:08;;;;;;;3.07;2.87;;;16.50;99.90;;;;;;5066475;28;20545;-68
2023/08/10 00:35:37;;;;;;;2.50;2.30;;;16.30;99.90;;;;;;5067451;28;20220;-68
2023/08/10 00:38:03;;;;;;;3.20;3.00;;;16.20;99.90;;;;;;5065641;28;20556;-68
2023/08/10 00:40:29;;;;;;;3.07;2.80;;;16.20;99.90;;;;;;5067685;28;20177;-68
2023/08/10 00:42:56;;;;;;;3.27;3.07;;;16.30;99.90;;;;;;5063606;28;20185;-68
2023/08/10 00:45:22;;;;;;;4.25;2.70;;;16.20;99.90;;;;;;5066403;28;20232;-69
2023/08/10 00:47:47;;;;;;;2.93;2.63;;;16.30;99.90;;;;;;5066957;28;20726;-68
2023/08/10 00:50:13;;;;;;;3.37;3.07;;;16.10;99.90;;;;;;5066863;28;20212;-68
2023/08/10 00:52:39;;;;;;;3.33;3.03;;;16.10;99.90;;;;;;5064087;28;20202;-69
2023/08/10 00:55:05;;;;;;;3.47;3.17;;;16.10;99.90;;;;;;5067640;28;20214;-68
2023/08/10 00:57:31;;;;;;;3.03;2.83;;;16.20;99.90;;;;;;5063771;28;20309;-70
2023/08/10 00:59:57;;;;;;;3.77;3.47;;;16.00;99.90;;;;;;5064889;28;20193;-68
2023/08/10 01:02:22;;;;;;;3.03;2.83;;;16.10;99.90;;;;;;5067272;28;20519;-68
2023/08/10 01:04:48;;;;;;;3.57;3.27;;;15.80;99.90;;;;;;5067371;28;20214;-68
2023/08/10 01:07:43;;;;;;;3.57;3.27;;;15.80;99.90;;;;;;5064455;28;20271;-68
2023/08/10 01:10:50;;;;;;;3.45;3.15;;;16.10;99.90;;;;;;5066289;28;20208;-68
2023/08/10 01:14:03;;;;;;;3.25;2.92;;;15.80;99.90;;;;;;4983106;28;20190;-68
2023/08/10 01:16:31;;;;;;;2.92;2.72;;;15.70;99.90;;;;;;5030969;28;20700;-68
2023/08/10 01:18:58;;;;;;;4.60;2.90;;;15.40;99.90;;;;;;5065463;28;20185;-68
2023/08/10 01:21:42;;;;;;;3.97;3.20;;;15.60;99.90;;;;;;5063861;28;20621;-68
2023/08/10 01:24:27;;;;;;;4.00;3.70;;;15.50;99.90;;;;;;5079699;28;20177;-69
2023/08/10 01:26:55;;;;;;;3.70;3.40;;;15.60;99.90;;;;;;5079821;28;20681;-69
2023/08/10 01:29:22;;;;;;;4.85;3.28;;;15.10;99.90;;;;;;5065150;28;20533;-68
2023/08/10 01:31:48;;;;;;;4.03;3.63;;;15.30;99.90;;;;;;5063587;28;20657;-67
2023/08/10 01:34:14;;;;;;;3.70;3.40;;;15.40;99.90;;;;;;5063517;28;20197;-68
2023/08/10 01:36:40;;;;;;;3.60;3.30;;;15.30;99.90;;;;;;5065133;28;21829;-68
2023/08/10 01:39:06;;;;;;;4.90;3.77;;;15.20;99.90;;;;;;5066063;28;20204;-68
2023/08/10 01:41:32;;;;;;;3.67;3.37;;;15.30;99.90;;;;;;5065097;28;20803;-69
2023/08/10 01:43:57;;;;;;;4.43;3.50;;;15.30;99.90;;;;;;5063780;28;20184;-67
2023/08/10 01:46:26;;;;;;;4.00;3.70;;;15.10;99.90;;;;;;5068122;28;20278;-68
2023/08/10 01:48:53;;;;;;;3.85;3.55;;;15.00;99.90;;;;;;5069638;28;20184;-67
2023/08/10 01:51:24;;;;;;;3.85;3.55;;;14.80;99.90;;;;;;5069295;28;20656;-69
2023/08/10 01:53:52;;;;;;;3.97;3.67;;;15.10;99.90;;;;;;5070225;28;20181;-69
2023/08/10 01:56:18;;;;;;;3.85;3.55;;;15.10;99.90;;;;;;5071093;28;20295;-69
2023/08/10 01:58:44;;;;;;;3.20;3.00;;;14.80;99.90;;;;;;5065694;28;20260;-68
2023/08/10 02:01:10;;;;;;;3.30;3.00;;;15.00;99.90;;;;;;5068600;28;20632;-68
2023/08/10 02:03:36;;;;;;;3.88;3.03;;;15.00;99.90;;;;;;5070751;28;20942;-66
2023/08/10 02:06:02;;;;;;;3.67;3.37;;;15.20;99.90;;;;;;5067675;28;20286;-67
2023/08/10 02:08:28;;;;;;;3.63;3.30;;;14.90;99.90;;;;;;5067156;28;20242;-67
2023/08/10 02:10:53;;;;;;;3.43;3.13;;;14.90;99.90;;;;;;5069689;28;20184;-68
2023/08/10 02:13:19;;;;;;;3.60;3.30;;;15.00;99.90;;;;;;5069085;28;20176;-68
2023/08/10 02:15:45;;;;;;;3.80;3.30;;;14.80;99.90;;;;;;5065059;28;20204;-69
2023/08/10 02:18:14;;;;;;;3.70;3.40;;;14.90;99.90;;;;;;5060743;28;20276;-68
2023/08/10 02:20:40;;;;;;;3.45;3.17;;;15.00;99.90;;;;;;5067384;28;21296;-67
2023/08/10 02:23:05;;;;;;;3.93;3.63;;;14.90;99.90;;;;;;5067451;28;20189;-67
2023/08/10 02:25:31;;;;;;;3.47;3.17;;;14.70;99.90;;;;;;5069147;28;20676;-69
2023/08/10 02:27:57;;;;;;;4.40;3.60;;;14.90;99.90;;;;;;5068313;28;20734;-68
2023/08/10 02:30:22;;;;;;;3.87;3.57;;;14.90;99.90;;;;;;5069480;28;20193;-69
2023/08/10 02:32:48;;;;;;;3.93;3.60;;;14.80;99.90;;;;;;5070491;28;20181;-69
2023/08/10 02:35:14;;;;;;;3.87;3.57;;;14.60;99.90;;;;;;5065958;28;20204;-69
2023/08/10 02:37:40;;;;;;;3.47;3.17;;;14.50;99.90;;;;;;5068120;28;20268;-69
2023/08/10 02:40:08;;;;;;;3.67;3.25;;;14.80;99.90;;;;;;5069369;28;20439;-69
2023/08/10 02:42:34;;;;;;;3.80;3.50;;;14.50;99.90;;;;;;5068826;28;20184;-70
2023/08/10 02:44:59;;;;;;;3.50;3.20;;;14.80;99.90;;;;;;5069937;28;20209;-69
2023/08/10 02:47:25;;;;;;;3.90;3.60;;;14.70;99.90;;;;;;5067503;28;20641;-66
2023/08/10 02:49:51;;;;;;;3.53;3.23;;;14.70;99.90;;;;;;5069514;28;20220;-69
2023/08/10 02:52:16;;;;;;;3.80;3.50;;;14.50;99.90;;;;;;5069871;28;20500;-70
2023/08/10 02:54:42;;;;;;;3.33;3.13;;;14.70;99.90;;;;;;5069796;28;20966;-68
2023/08/10 02:57:08;;;;;;;4.47;4.07;;;14.80;99.90;;;;;;5069617;28;20267;-67
2023/08/10 02:59:34;;;;;;;3.80;3.45;;;14.60;99.90;;;;;;5068350;28;20169;-67
2023/08/10 03:02:00;;;;;;;3.90;3.60;;;14.70;99.90;;;;;;5069537;28;20336;-69
2023/08/10 03:04:26;;;;;;;5.63;3.70;;;14.50;99.90;;;;;;5069331;28;20184;-69
2023/08/10 03:06:51;;;;;;;5.10;3.93;;;14.40;99.90;;;;;;5069613;28;20193;-68
2023/08/10 03:09:17;;;;;;;3.90;3.53;;;14.50;99.90;;;;;;5066743;28;20192;-68
2023/08/10 03:11:43;;;;;;;3.70;3.33;;;14.70;99.90;;;;;;5066855;28;20184;-69
2023/08/10 03:14:08;;;;;;;3.70;3.40;;;14.60;99.90;;;;;;5067158;28;20264;-68
2023/08/10 03:16:34;;;;;;;4.40;3.90;;;14.60;99.90;;;;;;5067132;28;20578;-67
2023/08/10 03:19:00;;;;;;;3.88;3.58;;;14.60;99.90;;;;;;5067677;28;20235;-68
2023/08/10 03:21:26;;;;;;;4.38;4.05;;;14.50;99.90;;;;;;5067385;28;20235;-68
2023/08/10 03:23:52;;;;;;;3.80;3.50;;;14.80;99.90;;;;;;5068175;28;20177;-68
2023/08/10 03:26:18;;;;;;;4.03;3.73;;;14.20;99.90;;;;;;5068612;28;20200;-68
2023/08/10 03:28:43;;;;;;;4.23;3.83;;;14.20;99.90;;;;;;5064019;28;20885;-68
2023/08/10 03:31:13;;;;;;;4.77;4.27;;;14.50;99.90;;;;;;5066758;28;20615;-67
2023/08/10 03:33:39;;;;;;;5.00;4.40;;;14.60;99.90;;;;;;5068900;28;20230;-68
2023/08/10 03:36:05;;;;;;;3.40;3.20;;;14.50;99.90;;;;;;5066182;28;20334;-68
2023/08/10 03:38:30;;;;;;;4.53;4.20;;;14.50;99.90;;;;;;5075196;28;20223;-66
2023/08/10 03:40:56;;;;;;;4.23;3.80;;;14.30;99.90;;;;;;5067342;28;20280;-67
2023/08/10 03:43:22;;;;;;;3.77;3.40;;;14.50;99.90;;;;;;5066570;28;20681;-66
2023/08/10 03:45:47;;;;;;;4.80;4.40;;;14.60;99.90;;;;;;5068425;28;20212;-67
2023/08/10 03:48:13;;;;;;;4.10;3.80;;;14.30;99.90;;;;;;5068387;28;20215;-67
2023/08/10 03:50:38;;;;;;;3.90;3.60;;;14.50;99.90;;;;;;5068922;28;20650;-68
2023/08/10 03:53:04;;;;;;;4.20;3.90;;;14.30;99.90;;;;;;5067050;28;20221;-67
2023/08/10 03:55:30;;;;;;;5.10;4.60;;;14.40;99.90;;;;;;5067383;28;20220;-67
2023/08/10 03:57:56;;;;;;;4.07;3.78;;;14.20;99.90;;;;;;5067143;28;20233;-67
2023/08/10 04:00:21;;;;;;;4.60;4.20;;;14.20;99.90;;;;;;5066307;28;20666;-68
2023/08/10 04:02:47;;;;;;;3.77;3.47;;;14.60;99.90;;;;;;5065815;28;20181;-68
2023/08/10 04:05:13;;;;;;;5.80;5.30;;;14.20;99.90;;;;;;5067394;28;20249;-69
2023/08/10 04:07:40;;;;;;;4.20;3.80;;;14.40;99.90;;;;;;5068260;28;20181;-66
2023/08/10 04:10:10;;;;;;;7.25;3.90;;;14.30;99.90;;;;;;5066021;28;20779;-66
2023/08/10 04:12:36;;;;;;;4.30;3.90;;;14.50;99.90;;;;;;5065052;28;20185;-69
2023/08/10 04:15:03;;;;;;;3.65;3.35;;;14.20;99.90;;;;;;5061148;28;20345;-68
2023/08/10 04:17:29;;;;;;;3.95;3.65;;;14.20;99.90;;;;;;5066738;28;20173;-65
2023/08/10 04:19:56;;;;;;;4.30;3.90;;;14.40;99.90;;;;;;5066952;28;20226;-67
2023/08/10 04:22:22;;;;;;;3.70;3.40;;;14.40;99.90;;;;;;5062466;28;20935;-68
2023/08/10 04:24:47;;;;;;;4.47;3.63;;;14.40;99.90;;;;;;5065399;28;20190;-67
2023/08/10 04:27:13;;;;;;;3.83;3.53;;;14.50;99.90;;;;;;5061782;28;20177;-66
2023/08/10 04:29:43;;;;;;;4.60;4.03;;;13.90;99.90;;;;;;5061917;28;20219;-67
2023/08/10 04:32:09;;;;;;;4.57;3.85;;;14.50;99.90;;;;;;5063675;28;20212;-69
2023/08/10 04:34:34;;;;;;;4.40;4.00;;;14.30;99.90;;;;;;5064335;28;20254;-67
2023/08/10 04:37:00;;;;;;;4.43;4.03;;;14.40;99.90;;;;;;5064501;28;20347;-67
2023/08/10 04:39:27;;;;;;;4.50;4.20;;;14.40;99.90;;;;;;5062839;28;20181;-68
2023/08/10 04:41:52;;;;;;;5.25;4.18;;;14.50;99.90;;;;;;5059814;28;20605;-67
2023/08/10 04:44:18;;;;;;;4.33;4.00;;;14.10;99.90;;;;;;5063111;28;20242;-68
2023/08/10 04:46:44;;;;;;;4.37;4.03;;;14.40;99.90;;;;;;5080973;28;20490;-66
2023/08/10 04:49:10;;;;;;;4.60;4.20;;;14.30;99.90;;;;;;5064703;28;20353;-66
2023/08/10 04:51:36;;;;;;;4.40;3.97;;;14.30;99.90;;;;;;5059255;28;20184;-66
2023/08/10 04:54:02;;;;;;;4.20;3.80;;;14.30;99.90;;;;;;5069243;28;20181;-66
2023/08/10 04:56:27;;;;;;;4.47;4.07;;;14.10;99.90;;;;;;5064644;28;20489;-69
2023/08/10 04:58:53;;;;;;;5.60;5.20;;;14.10;99.90;;;;;;5065855;28;20439;-68
2023/08/10 05:01:20;;;;;;;5.00;4.60;;;14.20;99.90;;;;;;5065283;28;20655;-69
2023/08/10 05:03:46;;;;;;;4.40;4.00;;;14.30;99.90;;;;;;5063929;28;20242;-68
2023/08/10 05:06:12;;;;;;;4.53;4.13;;;14.30;99.90;;;;;;5064782;28;20219;-68
2023/08/10 05:08:38;;;;;;;4.47;4.10;;;14.40;99.90;;;;;;5064956;28;20254;-67
2023/08/10 05:11:04;;;;;;;4.57;4.10;;;14.50;99.90;;;;;;5066676;28;20184;-67
2023/08/10 05:13:29;;;;;;;4.30;3.90;;;14.40;99.90;;;;;;5063365;28;20180;-67
2023/08/10 05:15:55;;;;;;;5.77;4.83;;;14.40;99.90;;;;;;5069760;28;20232;-67
2023/08/10 05:18:22;;;;;;;4.70;4.30;;;14.40;99.90;;;;;;5063852;28;20188;-69
2023/08/10 05:20:48;;;;;;;6.63;5.10;;;14.60;99.90;;;;;;5060409;28;20688;-71
2023/08/10 05:23:14;;;;;;;7.95;5.80;;;14.70;99.90;;;;;;5059877;28;20181;-70
2023/08/10 05:25:40;;;;;;;4.73;3.97;;;14.50;99.90;;;;;;5064380;28;20278;-71
2023/08/10 05:28:06;;;;;;;5.93;4.47;;;14.70;99.90;;;;;;5062622;28;20443;-73
2023/08/10 05:30:31;;;;;;;5.40;4.50;;;14.90;99.90;;;;;;5063330;28;20269;-71
2023/08/10 05:32:57;;;;;;;4.70;4.30;;;15.00;99.90;;;;;;5063504;28;20238;-72
2023/08/10 05:35:22;;;;;;;7.20;4.50;;;14.80;99.90;;;;;;5062063;28;20707;-73
2023/08/10 05:37:48;;;;;;;4.53;4.23;;;15.00;99.90;;;;;;5065104;28;20191;-70
2023/08/10 05:40:14;;;;;;;5.13;4.63;;;15.20;99.90;;;;;;5061784;28;20184;-73
2023/08/10 05:42:41;;;;;;;4.50;4.20;;;15.20;99.90;;;;;;5059790;28;20185;-72
2023/08/10 05:45:08;;;;;;;5.18;4.68;;;15.30;99.90;;;;;;5062228;28;20216;-72
2023/08/10 05:47:36;;;;;;;5.20;4.75;;;15.00;99.90;;;;;;5080090;28;20177;-70
2023/08/10 05:50:03;;;;;;;4.45;3.92;;;15.20;99.90;;;;;;5062962;28;20177;-72
2023/08/10 05:52:29;;;;;;;4.72;4.28;;;15.30;99.90;;;;;;5062284;28;20180;-69
2023/08/10 05:54:55;;;;;;;4.72;4.32;;;15.30;99.90;;;;;;5065368;28;20240;-69
2023/08/10 05:57:21;;;;;;;5.07;4.57;;;15.60;99.90;;;;;;5064033;28;20327;-69
2023/08/10 05:59:46;;;;;;;4.07;3.67;;;15.80;99.90;;;;;;5060312;28;20436;-69
2023/08/10 06:02:12;;;;;;;5.47;4.97;;;16.20;99.90;;;;;;5063538;28;20445;-68
2023/08/10 06:04:41;;;;;;;4.40;4.00;;;16.50;99.90;;;;;;5065350;28;20219;-68
2023/08/10 06:07:07;;;;;;;4.90;4.50;;;16.80;99.90;;;;;;5064359;28;20665;-67
2023/08/10 06:09:32;;;;;;;4.67;4.30;;;16.60;99.90;;;;;;5061914;28;20278;-68
2023/08/10 06:11:58;;;;;;;4.20;3.87;;;16.90;99.90;;;;;;5062124;28;20195;-67
2023/08/10 06:14:24;;;;;;;3.87;3.47;;;16.90;99.90;;;;;;5059574;28;20180;-73
2023/08/10 06:16:50;;;;;;;4.22;3.92;;;17.10;99.90;;;;;;5070836;28;20638;-74
2023/08/10 06:19:16;;;;;;;3.83;3.53;;;17.50;99.90;;;;;;5058178;28;20264;-74
2023/08/10 06:21:42;;;;;;;4.80;4.40;;;17.70;99.90;;;;;;5078668;28;20185;-74
2023/08/10 06:24:09;;;;;;;8.83;7.70;;;17.70;99.90;;;;;;5060615;28;20222;-73
2023/08/10 06:26:36;;;;;;;5.60;4.90;;;17.70;99.90;;;;;;5065437;28;20516;-73
2023/08/10 06:29:02;;;;;;;4.90;4.40;;;17.90;99.90;;;;;;5063935;23;20226;-74
2023/08/10 06:31:28;;;;;;;4.65;4.25;;;17.80;99.90;;;;;;5022822;28;20182;-75
2023/08/10 06:33:54;;;;;;;4.43;4.03;;;17.60;99.90;;;;;;5010232;28;20185;-74
2023/08/10 06:36:20;;;;;;;5.53;4.07;;;17.90;99.90;;;;;;5025482;28;20214;-73
2023/08/10 06:38:45;;;;;;;4.67;4.27;;;17.90;99.90;;;;;;5010728;28;20171;-70
2023/08/10 06:41:11;;;;;;;5.40;4.40;;;18.20;99.90;;;;;;5027463;28;20252;-73
2023/08/10 06:43:37;;;;;;;5.50;4.28;;;18.10;99.90;;;;;;5025442;28;20201;-73
2023/08/10 06:46:03;;;;;;;4.03;3.73;;;18.10;99.90;;;;;;5009175;28;20671;-81
2023/08/10 06:48:28;;;;;;;5.20;4.70;;;18.20;99.90;;;;;;5006751;28;20189;-71
2023/08/10 06:50:54;;;;;;;4.87;3.80;;;18.20;99.90;;;;;;5025188;28;20678;-71
2023/08/10 06:53:21;;;;;;;4.43;4.13;;;18.40;99.90;;;;;;5033552;28;20190;-71
2023/08/10 06:55:47;;;;;;;6.47;4.35;;;18.40;99.90;;;;;;5006327;28;20215;-71
2023/08/10 06:58:13;;;;;;;4.93;4.43;;;18.70;99.90;;;;;;5003181;28;20559;-72
2023/08/10 07:00:39;;;;;;;5.07;4.57;;;18.80;99.90;;;;;;5029364;28;20265;-71
2023/08/10 07:03:06;;;;;;;7.03;4.90;;;18.70;99.90;;;;;;5012005;28;20448;-71
2023/08/10 07:05:37;;;;;;;4.38;3.97;;;18.80;99.90;;;;;;5010784;28;20616;-71
2023/08/10 07:08:04;;;;;;;6.00;4.15;;;18.80;99.90;;;;;;5005731;28;20206;-71
2023/08/10 07:10:30;;;;;;;3.92;3.63;;;18.90;99.90;;;;;;5006770;28;20190;-71
2023/08/10 07:12:55;;;;;;;4.57;4.27;;;19.00;99.90;;;;;;5006793;28;20669;-71
2023/08/10 07:15:21;;;;;;;4.03;3.73;;;19.10;99.90;;;;;;5028833;28;20855;-72
2023/08/10 07:17:46;;;;;;;4.57;4.27;;;19.10;99.90;;;;;;5028183;28;20191;-71
2023/08/10 07:20:13;;;;;;;4.70;4.30;;;19.30;99.90;;;;;;5026349;28;20182;-68
2023/08/10 07:22:41;;;;;;;4.00;3.70;;;19.40;99.90;;;;;;5026078;28;20639;-68
2023/08/10 07:25:07;;;;;;;3.90;3.60;;;19.20;99.90;;;;;;5006481;28;20219;-66
2023/08/10 07:27:33;;;;;;;3.83;3.53;;;19.50;99.90;;;;;;5025919;28;20620;-73
2023/08/10 07:29:59;;;;;;;4.65;4.25;;;19.60;99.90;;;;;;5027816;28;20303;-70
2023/08/10 07:32:26;;;;;;;3.63;3.33;;;19.70;99.90;;;;;;5006952;28;20344;-65
2023/08/10 07:34:51;;;;;;;3.95;3.65;;;19.80;99.90;;;;;;5026012;28;20505;-69
2023/08/10 07:37:17;;;;;;;4.37;4.00;;;20.00;99.90;;;;;;5025301;28;20219;-69
2023/08/10 07:39:43;;;;;;;4.80;4.13;;;20.10;99.90;;;;;;5021428;28;20240;-70
2023/08/10 07:42:09;;;;;;;6.00;5.50;;;20.40;99.90;;;;;;5012897;28;20191;-72
2023/08/10 07:44:34;;;;;;;3.77;3.30;;;20.50;99.90;;;;;;5023706;28;20252;-69
2023/08/10 07:47:00;;;;;;;4.17;3.77;;;20.60;99.90;;;;;;5020098;28;20194;-69
2023/08/10 07:49:25;;;;;;;4.47;3.87;;;20.80;99.90;;;;;;5026520;28;20186;-70
2023/08/10 07:51:51;;;;;;;3.70;3.37;;;21.00;99.90;;;;;;5026682;28;20222;-69
2023/08/10 07:54:16;;;;;;;4.33;3.93;;;21.30;99.90;;;;;;5026396;28;20195;-72
2023/08/10 07:56:43;;;;;;;4.07;3.77;;;21.40;99.90;;;;;;5026181;28;20220;-69
2023/08/10 07:59:08;;;;;;;4.10;3.80;;;21.50;99.90;;;;;;5008805;28;20179;-70
2023/08/10 08:01:34;;;;;;;4.00;3.70;;;21.70;99.90;;;;;;5027303;28;20237;-71
2023/08/10 08:04:00;;;;;;;3.90;3.60;;;22.00;99.90;;;;;;5028017;28;20182;-70
2023/08/10 08:06:25;;;;;;;4.10;3.80;;;22.40;99.90;;;;;;5012521;28;20202;-71
2023/08/10 08:08:51;;;;;;;4.43;4.03;;;22.80;99.90;;;;;;5024934;28;20520;-70
2023/08/10 08:11:17;;;;;;;4.97;3.67;;;23.10;99.90;;;;;;5026497;28;20560;-70
2023/08/10 08:13:43;;;;;;;4.30;3.90;;;23.30;99.90;;;;;;5000888;28;20640;-71
2023/08/10 08:16:09;;;;;;;4.10;3.80;;;23.50;99.60;;;;;;5025358;28;20484;-70
2023/08/10 08:18:43;;;;;;;4.67;4.20;;;23.60;99.00;;;;;;5024331;28;20667;-76
2023/08/10 08:21:10;;;;;;;3.20;3.00;;;24.20;98.50;;;;;;5019407;28;20495;-75
2023/08/10 08:23:36;;;;;;;4.00;3.70;;;24.40;97.20;;;;;;5009842;28;20929;-73
2023/08/10 08:26:02;;;;;;;3.70;3.40;;;24.30;97.80;;;;;;5024398;28;20559;-73
2023/08/10 08:28:27;;;;;;;3.20;3.00;;;24.90;96.70;;;;;;5026423;28;20198;-72
2023/08/10 08:30:53;;;;;;;4.63;3.90;;;25.20;96.00;;;;;;5027074;28;20194;-71
2023/08/10 08:33:19;;;;;;;3.60;2.90;;;25.80;95.40;;;;;;5025350;28;20557;-73
2023/08/10 08:35:46;;;;;;;3.63;3.23;;;26.70;93.70;;;;;;5022488;28;20216;-72
2023/08/10 08:38:13;;;;;;;3.30;3.10;;;26.90;92.70;;;;;;5028648;28;20438;-72
2023/08/10 08:40:40;;;;;;;4.80;2.77;;;27.20;92.20;;;;;;5006745;28;21015;-72
2023/08/10 08:43:06;;;;;;;3.50;3.20;;;27.20;91.70;;;;;;5007052;28;20439;-72
2023/08/10 08:45:32;;;;;;;3.03;2.83;;;27.90;90.60;;;;;;5024853;28;20461;-70
2023/08/10 08:47:59;;;;;;;3.20;2.90;;;28.70;88.30;;;;;;5024220;28;20457;-71
2023/08/10 08:50:27;;;;;;;3.27;2.93;;;30.20;84.80;;;;;;5026514;28;21004;-70
2023/08/10 08:52:53;;;;;;;3.17;2.60;;;31.30;77.50;;;;;;5002827;28;20897;-69
2023/08/10 08:55:19;;;;;;;3.13;2.93;;;33.00;72.70;;;;;;5024932;28;20943;-70
2023/08/10 08:57:46;;;;;;;3.10;2.90;;;34.20;67.00;;;;;;5028407;28;20451;-69
2023/08/10 09:00:13;;;;;;;2.93;2.73;;;34.30;64.50;;;;;;5024453;28;20475;-71
2023/08/10 09:02:38;;;;;;;3.27;2.93;;;35.30;60.30;;;;;;5022790;28;20449;-71
2023/08/10 09:05:05;;;;;;;3.60;3.30;;;33.90;58.80;;;;;;5025287;28;20530;-77
2023/08/10 09:07:31;;;;;;;2.70;2.50;;;34.60;59.60;;;;;;5008734;28;20183;-76
2023/08/10 09:09:57;;;;;;;4.73;3.30;;;35.30;57.90;;;;;;5028676;28;20464;-74
2023/08/10 09:12:35;;;;;;;4.23;3.43;;;34.60;58.40;;;;;;5023587;28;20472;-69
2023/08/10 09:15:08;;;;;;;5.20;3.60;;;34.20;58.80;;;;;;5004404;28;20473;-74
2023/08/10 09:17:55;;;;;;;3.87;3.57;;;34.30;58.70;;;;;;5025446;28;20449;-76
2023/08/10 09:20:25;;;;;;;3.23;3.03;;;34.50;57.00;;;;;;5007435;28;20437;-79
2023/08/10 09:22:52;;;;;;;3.83;3.53;;;34.30;58.70;;;;;;5012454;28;20437;-80
2023/08/10 09:25:18;;;;;;;3.77;3.17;;;34.30;58.40;;;;;;5033356;28;20464;-78
2023/08/10 09:27:47;;;;;;;2.80;2.60;;;33.50;58.70;;;;;;5011897;28;20503;-79
2023/08/10 09:30:13;;;;;;;2.50;2.30;;;32.50;59.90;;;;;;5012701;28;20989;-81
2023/08/10 09:32:39;;;;;;;4.63;2.50;;;31.60;62.30;;;;;;5026598;28;21199;-72
2023/08/10 09:35:06;;;;;;;3.03;2.60;;;31.10;64.10;;;;;;5031425;28;20511;-82
2023/08/10 09:37:32;;;;;;;3.03;2.83;;;29.80;67.40;;;;;;5011947;28;20523;-73
2023/08/10 09:40:05;;;;;;;3.00;2.80;;;29.60;68.40;;;;;;5027726;28;20551;-77
2023/08/10 09:42:31;;;;;;;3.00;2.80;;;29.10;70.00;;;;;;5013936;28;20299;-80
2023/08/10 09:44:58;;;;;;;3.57;3.27;;;28.50;72.70;;;;;;5011565;28;20466;-80
2023/08/10 09:47:24;;;;;;;2.83;2.63;;;27.50;75.90;;;;;;5033289;28;20464;-79
2023/08/10 09:50:06;;;;;;;3.67;3.37;;;27.20;78.80;;;;;;5031995;28;20951;-80
2023/08/10 09:52:36;;;;;;;3.13;2.93;;;26.90;80.50;;;;;;5013841;28;20445;-79
2023/08/10 09:55:03;;;;;;;2.80;2.47;;;26.80;80.90;;;;;;5010412;28;20478;-79
2023/08/10 09:57:29;;;;;;;3.10;2.80;;;27.10;81.80;;;;;;5028948;28;20513;-79
2023/08/10 09:59:55;;;;;;;3.23;2.93;;;26.80;82.40;;;;;;5011311;28;20529;-80
2023/08/10 10:02:21;;;;;;;3.10;2.80;;;27.50;80.90;;;;;;5030980;28;20206;-80
2023/08/10 10:04:47;;;;;;;3.00;2.80;;;27.50;79.50;;;;;;5039263;28;20445;-79
2023/08/10 10:07:20;;;;;;;4.30;3.33;;;27.10;78.90;;;;;;5014718;28;20437;-76
2023/08/10 10:09:49;;;;;;;3.00;2.80;;;26.70;81.00;;;;;;5034313;28;20437;-80
2023/08/10 10:12:15;;;;;;;4.00;3.30;;;27.30;82.50;;;;;;5017827;28;20470;-80
2023/08/10 10:14:47;;;;;;;3.10;2.80;;;26.40;83.00;;;;;;5014419;28;20456;-75
2023/08/10 10:17:20;;;;;;;3.60;2.90;;;26.20;84.10;;;;;;5026235;28;20440;-75
2023/08/10 10:19:50;;;;;;;3.77;3.40;;;26.10;84.60;;;;;;5009620;28;20546;-75
2023/08/10 10:22:17;;;;;;;4.03;3.30;;;26.10;85.30;;;;;;5005736;28;20498;-75
2023/08/10 10:24:44;;;;;;;2.90;2.60;;;25.90;86.10;;;;;;5008447;28;20744;-76
2023/08/10 10:27:11;;;;;;;3.03;2.83;;;25.80;86.50;;;;;;5029244;28;20439;-75
2023/08/10 10:29:42;;;;;;;3.50;3.20;;;25.60;86.30;;;;;;5027395;28;20828;-75
2023/08/10 10:32:10;;;;;;;4.43;4.03;;;25.40;87.20;;;;;;5029113;28;20446;-75
2023/08/10 10:34:37;;;;;;;3.00;2.80;;;25.50;87.70;;;;;;5029204;28;20478;-75
2023/08/10 10:37:13;;;;;;;3.03;2.73;;;25.60;86.80;;;;;;5008444;28;20519;-75
2023/08/10 10:39:40;;;;;;;3.50;3.20;;;25.60;85.70;;;;;;5028669;28;20639;-75
2023/08/10 10:42:07;;;;;;;3.80;3.50;;;25.50;86.90;;;;;;5029684;28;20436;-75
2023/08/10 10:44:57;;;;;;;3.73;3.43;;;25.20;87.00;;;;;;5026938;28;20457;-75
2023/08/10 10:47:37;;;;;;;3.87;3.57;;;25.20;88.70;;;;;;4999752;28;20500;-75
2023/08/10 10:50:20;;;;;;;3.10;2.90;;;25.30;88.50;;;;;;5010537;28;20914;-75
2023/08/10 10:53:13;;;;;;;3.60;3.30;;;25.30;88.10;;;;;;5010021;28;20500;-75
2023/08/10 10:55:42;;;;;;;4.00;3.70;;;25.10;89.00;;;;;;5011523;28;20470;-75
2023/08/10 10:58:09;;;;;;;3.73;3.43;;;24.90;90.10;;;;;;5027746;28;20443;-76
2023/08/10 11:00:36;;;;;;;3.30;3.00;;;25.10;89.30;;;;;;5029120;28;20497;-75
2023/08/10 11:03:09;;;;;;;2.90;2.70;;;25.20;87.80;;;;;;5011436;28;20435;-75
2023/08/10 11:05:36;;;;;;;2.93;2.63;;;25.30;87.10;;;;;;5028551;28;20474;-75
2023/08/10 11:08:06;;;;;;;4.17;3.73;;;25.40;87.20;;;;;;5008996;28;20451;-76
2023/08/10 11:10:37;;;;;;;3.40;3.10;;;25.50;86.40;;;;;;5028052;28;20458;-75
2023/08/10 11:13:07;;;;;;;3.30;3.10;;;25.20;86.40;;;;;;5026188;28;20445;-75
2023/08/10 11:15:34;;;;;;;3.23;2.93;;;25.10;87.00;;;;;;5030097;28;20466;-75
2023/08/10 11:18:00;;;;;;;3.30;3.10;;;25.10;88.00;;;;;;5011218;28;20438;-75
2023/08/10 11:20:26;;;;;;;3.33;3.03;;;25.10;86.60;;;;;;5009515;28;20447;-75
2023/08/10 11:22:52;;;;;;;4.50;3.47;;;25.00;87.50;;;;;;5009733;28;20442;-76
2023/08/10 11:25:23;;;;;;;3.17;2.93;;;24.90;86.90;;;;;;5025940;28;20619;-76
2023/08/10 11:27:51;;;;;;;4.10;3.80;;;25.20;88.00;;;;;;5008727;28;20442;-80
2023/08/10 11:30:19;;;;;;;3.33;3.03;;;25.30;86.90;;;;;;5011947;28;20482;-78
2023/08/10 11:32:46;;;;;;;3.33;3.07;;;25.40;86.30;;;;;;5009167;28;20446;-78
2023/08/10 11:35:14;;;;;;;3.00;2.70;;;25.30;86.00;;;;;;5011638;28;20822;-78
2023/08/10 11:37:44;;;;;;;3.30;3.00;;;25.30;85.20;;;;;;5027409;28;20999;-77
2023/08/10 11:40:15;;;;;;;3.53;3.33;;;25.90;84.50;;;;;;5028794;28;20440;-78
2023/08/10 11:42:42;;;;;;;4.50;3.33;;;26.80;80.30;;;;;;5007032;28;20448;-78
2023/08/10 11:45:09;;;;;;;3.77;3.47;;;27.70;77.40;;;;;;5026818;28;20476;-74
2023/08/10 11:47:42;;;;;;;3.70;3.40;;;28.40;72.60;;;;;;5024180;28;21344;-74
2023/08/10 11:50:09;;;;;;;3.17;2.87;;;29.60;70.20;;;;;;5027444;28;20453;-75
2023/08/10 11:52:42;;;;;;;3.70;3.40;;;29.30;69.40;;;;;;5024376;28;20529;-74
2023/08/10 11:55:16;;;;;;;3.70;3.40;;;29.40;67.40;;;;;;5008190;28;20565;-75
2023/08/10 11:57:52;;;;;;;4.90;3.57;;;29.10;67.20;;;;;;5023891;28;20453;-78
2023/08/10 12:00:19;;;;;;;3.73;3.43;;;29.00;67.40;;;;;;5009594;28;21037;-75
2023/08/10 12:03:12;;;;;;;3.40;3.10;;;29.20;67.70;;;;;;5002052;28;20447;-75
2023/08/10 12:05:50;;;;;;;3.03;2.83;;;29.20;66.20;;;;;;5008311;28;21025;-76
2023/08/10 12:08:20;;;;;;;3.57;3.27;;;28.90;66.30;;;;;;5008017;28;20532;-75
2023/08/10 12:10:50;;;;;;;3.70;3.40;;;28.40;67.30;;;;;;5025031;28;20544;-76
2023/08/10 12:13:19;;;;;;;3.97;3.67;;;27.90;69.00;;;;;;5006768;28;20468;-73
2023/08/10 12:15:50;;;;;;;3.77;2.87;;;27.50;69.80;;;;;;5008587;28;20481;-73
2023/08/10 12:18:21;;;;;;;4.60;3.80;;;27.40;70.40;;;;;;5024820;28;20449;-75
2023/08/10 12:20:49;;;;;;;4.80;3.23;;;27.20;71.20;;;;;;5006172;28;21027;-75
2023/08/10 12:23:17;;;;;;;3.90;3.27;;;26.60;71.70;;;;;;5004674;28;20442;-76
2023/08/10 12:25:46;;;;;;;3.50;3.20;;;26.60;72.40;;;;;;5004202;28;21105;-72
2023/08/10 12:28:13;;;;;;;4.43;3.33;;;26.50;72.40;;;;;;5025426;28;20551;-75
2023/08/10 12:30:39;;;;;;;3.03;2.83;;;26.40;72.40;;;;;;5007052;28;20445;-74
2023/08/10 12:33:10;;;;;;;3.90;3.60;;;26.30;72.50;;;;;;5008199;28;20854;-79
2023/08/10 12:35:36;;;;;;;4.20;3.33;;;26.30;74.10;;;;;;5007501;28;20472;-80
2023/08/10 12:38:03;;;;;;;3.67;3.30;;;26.30;73.60;;;;;;5019568;28;20459;-73
2023/08/10 12:40:29;;;;;;;3.57;3.27;;;26.30;73.80;;;;;;5006441;28;20452;-74
2023/08/10 12:42:55;;;;;;;5.73;3.60;;;26.30;73.10;;;;;;5006858;28;20786;-75
2023/08/10 12:45:22;;;;;;;3.77;3.30;;;26.20;73.80;;;;;;5010232;28;20471;-74
2023/08/10 12:47:47;;;;;;;4.03;3.63;;;26.10;73.40;;;;;;5024469;28;20300;-73
2023/08/10 12:50:15;;;;;;;3.37;3.13;;;26.20;74.20;;;;;;5026176;28;20550;-73